Time;durP1;ratioP1;P1;durP2;ratioP2;P2;SDS_P1;SDS_P2;PMS_P1;PMS_P2;Temp;Humidity;BMP_temperature;BMP_pressure;BME280_temperature;BME280_humidity;BME280_pressure;Samples;Min_cycle;Max_cycle;Signal;HPM_P1;HPM_P2
2022/04/23 00:01:42;;;;;;;;;;;;;;;12.14;79.39;98479.84;5067485;28;20044;-78
2022/04/23 00:04:13;;;;;;;10.87;5.63;;;;;;;12.14;78.46;98485.44;5069552;28;19924;-74
2022/04/23 00:06:40;;;;;;;12.17;6.53;;;;;;;12.12;78.54;98499.78;5068776;28;20044;-73
2022/04/23 00:09:07;;;;;;;7.93;4.90;;;;;;;11.87;78.60;98470.84;5065915;28;20102;-73
2022/04/23 00:11:34;;;;;;;8.73;5.00;;;;;;;11.56;78.49;98434.84;5073050;28;20076;-73
2022/04/23 00:14:04;;;;;;;6.10;4.30;;;;;;;11.86;78.31;98502.75;5072068;28;20044;-74
2022/04/23 00:16:31;;;;;;;8.27;4.20;;;;;;;11.75;78.51;98501.47;5071306;28;20131;-75
2022/04/23 00:18:59;;;;;;;9.50;4.47;;;;;;;11.68;78.66;98490.00;5066561;28;20044;-74
2022/04/23 00:21:26;;;;;;;12.83;4.83;;;;;;;11.70;78.67;98494.09;5070413;28;20052;-73
2022/04/23 00:23:53;;;;;;;10.60;4.93;;;;;;;11.69;78.41;98497.22;5068498;28;20091;-74
2022/04/23 00:26:20;;;;;;;7.80;5.10;;;;;;;11.67;78.55;98505.16;5069410;28;20044;-73
2022/04/23 00:28:46;;;;;;;11.43;4.97;;;;;;;11.67;78.33;98503.16;5067375;28;20084;-74
2022/04/23 00:31:16;;;;;;;9.70;5.93;;;;;;;11.82;78.13;98524.94;5069011;28;20094;-70
2022/04/23 00:33:43;;;;;;;10.02;5.47;;;;;;;11.83;78.28;98514.59;5065491;28;20048;-71
2022/04/23 00:36:11;;;;;;;13.17;5.60;;;;;;;11.84;78.17;98510.66;5065466;28;20776;-72
2022/04/23 00:38:40;;;;;;;8.60;4.60;;;;;;;11.55;78.20;98472.31;5069623;28;20067;-70
2022/04/23 00:41:43;;;;;;;6.93;3.80;;;;;;;11.48;77.85;98464.47;5065654;28;20137;-71
2022/04/23 00:43:55;;;;;;;6.53;3.07;;;;;;;11.82;78.02;98527.75;5070336;28;20088;-71
2022/04/23 00:46:22;;;;;;;5.17;3.07;;;;;;;11.88;77.91;98539.59;5071190;28;20053;-70
2022/04/23 00:48:49;;;;;;;3.33;1.83;;;;;;;11.82;77.88;98529.72;5067319;28;20067;-71
2022/04/23 00:51:16;;;;;;;2.67;1.80;;;;;;;11.88;77.70;98534.00;5066523;28;20079;-71
2022/04/23 00:53:43;;;;;;;3.77;2.47;;;;;;;11.49;77.86;98468.09;5069714;28;20518;-71
2022/04/23 00:56:10;;;;;;;3.90;1.97;;;;;;;11.65;77.61;98485.09;5076689;28;20102;-71
2022/04/23 00:58:38;;;;;;;4.63;2.47;;;;;;;11.82;77.74;98507.34;5049604;28;20140;-71
2022/04/23 01:01:05;;;;;;;7.73;2.03;;;;;;;11.80;77.87;98504.09;5044162;28;20049;-71
2022/04/23 01:03:32;;;;;;;3.80;2.03;;;;;;;11.92;77.75;98522.94;5051109;28;20128;-72
2022/04/23 01:05:59;;;;;;;6.33;2.27;;;;;;;11.76;77.79;98508.69;5048904;28;20060;-70
2022/04/23 01:08:26;;;;;;;4.50;2.07;;;;;;;11.78;77.73;98520.38;5048350;28;20334;-70
2022/04/23 01:10:53;;;;;;;4.43;2.23;;;;;;;11.96;77.95;98541.50;5050630;28;20454;-70
2022/04/23 01:13:21;;;;;;;4.77;2.67;;;;;;;11.94;77.81;98546.63;5050450;28;20044;-73
2022/04/23 01:15:56;;;;;;;6.97;2.40;;;;;;;11.90;78.22;98544.84;5054433;28;20126;-72
2022/04/23 01:18:23;;;;;;;4.00;2.47;;;;;;;11.85;77.82;98540.25;5053385;28;20132;-68
2022/04/23 01:20:51;;;;;;;5.47;2.30;;;;;;;11.61;77.57;98513.72;5053098;28;20534;-70
2022/04/23 01:23:18;;;;;;;5.27;2.10;;;;;;;11.74;77.70;98539.00;5053812;28;20122;-71
2022/04/23 01:25:46;;;;;;;5.80;2.10;;;;;;;11.19;77.75;98453.28;5056168;28;20072;-70
2022/04/23 01:28:15;;;;;;;3.13;1.63;;;;;;;11.14;77.77;98460.72;5052934;28;20080;-70
2022/04/23 01:30:42;;;;;;;4.20;1.10;;;;;;;11.72;77.88;98558.06;5049841;28;20224;-70
2022/04/23 01:33:09;;;;;;;2.60;1.40;;;;;;;11.14;77.78;98473.84;5054075;28;20492;-70
2022/04/23 01:35:35;;;;;;;3.57;1.80;;;;;;;11.62;77.79;98576.03;5052227;28;20053;-71
2022/04/23 01:38:02;;;;;;;3.53;1.97;;;;;;;11.57;77.67;98573.44;5052966;28;20084;-71
2022/04/23 01:40:29;;;;;;;3.43;1.80;;;;;;;11.42;77.78;98560.84;5052101;28;20104;-70
2022/04/23 01:42:56;;;;;;;5.97;2.40;;;;;;;11.45;78.17;98562.94;5049404;28;20456;-68
2022/04/23 01:45:23;;;;;;;5.47;2.40;;;;;;;11.45;78.23;98567.72;5053286;28;20082;-68
2022/04/23 01:47:50;;;;;;;5.90;2.20;;;;;;;11.44;78.13;98566.91;5054030;28;20084;-68
2022/04/23 01:50:17;;;;;;;4.73;2.23;;;;;;;11.57;78.10;98577.06;5052928;28;20044;-67
2022/04/23 01:52:43;;;;;;;6.17;2.57;;;;;;;11.39;78.17;98561.53;5052515;28;20077;-68
2022/04/23 01:55:10;;;;;;;4.07;2.43;;;;;;;11.33;78.18;98557.25;5054861;28;20057;-68
2022/04/23 01:57:37;;;;;;;4.77;2.70;;;;;;;11.35;78.40;98582.88;5065765;28;20086;-69
2022/04/23 02:00:10;;;;;;;6.03;2.70;;;;;;;11.29;78.63;98567.47;5071219;28;20079;-70
2022/04/23 02:02:37;;;;;;;5.70;3.33;;;;;;;11.23;78.41;98558.44;5072539;28;20487;-70
2022/04/23 02:05:05;;;;;;;4.47;3.13;;;;;;;11.13;78.42;98531.69;5071862;28;20086;-70
2022/04/23 02:07:43;;;;;;;4.00;2.63;;;;;;;11.60;78.56;98593.16;5071398;28;20483;-69
2022/04/23 02:10:12;;;;;;;5.33;2.93;;;;;;;11.58;78.37;98569.47;5072320;28;20076;-69
2022/04/23 02:12:40;;;;;;;7.00;2.85;;;;;;;11.67;78.31;98586.22;5071352;28;20045;-73
2022/04/23 02:15:12;;;;;;;4.23;2.83;;;;;;;11.74;78.15;98589.31;5072210;28;20454;-72
2022/04/23 02:17:45;;;;;;;5.70;2.73;;;;;;;11.41;78.35;98541.59;5073213;28;20095;-73
2022/04/23 02:20:14;;;;;;;6.47;2.83;;;;;;;11.71;78.26;98581.59;5072999;28;20079;-73
2022/04/23 02:22:42;;;;;;;4.77;2.47;;;;;;;11.81;78.36;98596.03;5076529;28;20155;-74
2022/04/23 02:25:09;;;;;;;4.60;2.30;;;;;;;11.84;78.04;98600.97;5076371;28;20364;-74
2022/04/23 02:27:49;;;;;;;3.30;1.80;;;;;;;11.87;78.48;98604.28;5085422;28;20053;-74
2022/04/23 02:30:20;;;;;;;2.97;1.77;;;;;;;11.79;78.09;98589.13;5081639;28;20051;-74
2022/04/23 02:32:50;;;;;;;5.67;2.37;;;;;;;11.77;77.99;98600.66;5069228;28;20049;-74
2022/04/23 02:35:20;;;;;;;3.93;2.27;;;;;;;11.74;78.17;98594.91;5071325;28;20080;-70
2022/04/23 02:37:48;;;;;;;4.25;1.80;;;;;;;11.38;78.07;98555.13;5071829;28;20071;-70
2022/04/23 02:40:16;;;;;;;3.13;1.80;;;;;;;11.34;78.11;98568.09;5072366;28;20056;-70
2022/04/23 02:42:44;;;;;;;3.07;2.03;;;;;;;11.73;78.33;98615.66;5070807;28;20076;-70
2022/04/23 02:45:14;;;;;;;2.77;1.27;;;;;;;11.71;78.21;98606.78;5070392;28;20495;-68
2022/04/23 02:47:51;;;;;;;2.20;1.13;;;;;;;11.68;78.40;98610.22;5070689;28;20057;-69
2022/04/23 02:50:31;;;;;;;2.80;1.40;;;;;;;11.60;78.57;98611.91;5060253;28;20110;-72
2022/04/23 02:52:59;;;;;;;4.43;1.30;;;;;;;11.68;78.12;98619.44;5066376;28;20095;-71
2022/04/23 02:55:28;;;;;;;2.57;1.20;;;;;;;11.74;78.02;98625.69;5071790;28;20044;-70
2022/04/23 02:57:57;;;;;;;1.93;1.10;;;;;;;11.75;78.12;98635.69;5072597;28;20052;-70
2022/04/23 03:00:23;;;;;;;1.67;1.20;;;;;;;11.43;77.98;98584.03;5070942;28;20075;-71
2022/04/23 03:02:52;;;;;;;3.17;1.20;;;;;;;11.47;77.88;98588.59;5064011;28;20518;-72
2022/04/23 03:05:26;;;;;;;2.53;1.30;;;;;;;11.71;77.87;98623.53;5067072;28;20644;-71
2022/04/23 03:07:53;;;;;;;2.70;1.17;;;;;;;11.55;78.07;98615.69;5069896;28;20044;-70
2022/04/23 03:10:21;;;;;;;4.57;1.00;;;;;;;11.72;78.01;98659.53;5072158;28;20102;-70
2022/04/23 03:12:48;;;;;;;4.03;1.63;;;;;;;11.60;77.96;98635.09;5066498;28;20518;-69
2022/04/23 03:15:18;;;;;;;3.47;1.50;;;;;;;11.67;78.24;98650.53;5068703;28;20072;-69
2022/04/23 03:17:46;;;;;;;5.00;1.10;;;;;;;11.40;77.97;98616.25;5069798;28;20045;-70
2022/04/23 03:20:14;;;;;;;2.70;1.00;;;;;;;11.22;78.06;98584.75;5057532;28;20106;-71
2022/04/23 03:22:43;;;;;;;1.90;1.00;;;;;;;11.74;77.97;98673.22;5069892;28;20056;-71
2022/04/23 03:25:11;;;;;;;7.60;1.00;;;;;;;11.72;78.05;98676.31;5068378;28;20076;-72
2022/04/23 03:27:39;;;;;;;2.87;1.10;;;;;;;11.77;78.02;98686.53;5067911;28;20110;-71
2022/04/23 03:30:07;;;;;;;4.73;1.03;;;;;;;11.76;78.15;98685.72;5061412;28;20075;-72
2022/04/23 03:32:34;;;;;;;3.57;1.20;;;;;;;11.46;78.09;98640.09;5071866;28;20049;-72
2022/04/23 03:35:01;;;;;;;4.33;1.27;;;;;;;11.50;78.06;98643.84;5069753;28;20049;-72
2022/04/23 03:37:28;;;;;;;4.10;1.07;;;;;;;11.82;77.97;98698.34;5068423;28;20063;-72
2022/04/23 03:39:55;;;;;;;3.73;1.00;;;;;;;11.78;78.18;98702.16;5069495;28;20047;-72
2022/04/23 03:42:22;;;;;;;4.27;1.60;;;;;;;11.55;78.32;98656.81;5079391;28;20098;-72
2022/04/23 03:44:49;;;;;;;8.67;1.20;;;;;;;11.88;77.99;98704.59;5072199;28;20090;-72
2022/04/23 03:47:16;;;;;;;4.77;1.40;;;;;;;11.81;78.19;98698.69;5071700;28;20075;-72
2022/04/23 03:49:43;;;;;;;4.63;1.20;;;;;;;11.78;78.16;98697.38;5060094;28;20107;-72
2022/04/23 03:52:10;;;;;;;5.00;1.50;;;;;;;11.52;78.13;98660.25;5067005;28;20122;-72
2022/04/23 03:54:38;;;;;;;6.03;1.47;;;;;;;11.77;78.16;98704.13;5069086;28;20101;-72
2022/04/23 03:57:06;;;;;;;2.97;1.40;;;;;;;11.90;78.15;98727.47;5067733;28;20078;-72
2022/04/23 03:59:35;;;;;;;6.50;1.63;;;;;;;11.56;78.19;98676.06;5078948;28;20456;-73
2022/04/23 04:02:04;;;;;;;2.43;1.23;;;;;;;11.70;78.13;98706.63;5057960;28;20500;-70
2022/04/23 04:04:32;;;;;;;3.50;1.40;;;;;;;11.84;78.21;98715.66;5069292;28;20090;-68
2022/04/23 04:07:00;;;;;;;8.50;1.63;;;;;;;11.61;78.27;98689.84;5068690;28;20044;-69
2022/04/23 04:09:28;;;;;;;2.20;1.20;;;;;;;11.86;78.34;98726.47;5071364;28;20044;-71
2022/04/23 04:12:01;;;;;;;3.47;1.27;;;;;;;11.96;78.21;98751.31;5070483;28;20042;-69
2022/04/23 04:14:35;;;;;;;4.30;1.57;;;;;;;11.93;78.43;98754.78;5071416;28;20048;-68
2022/04/23 04:17:07;;;;;;;5.37;1.70;;;;;;;11.95;78.34;98757.25;5060934;28;20607;-70
2022/04/23 04:19:34;;;;;;;5.40;1.77;;;;;;;11.87;78.37;98744.94;5064126;28;20527;-72
2022/04/23 04:22:04;;;;;;;4.37;1.30;;;;;;;11.93;78.33;98767.94;5067940;28;20565;-72
2022/04/23 04:24:31;;;;;;;3.72;1.83;;;;;;;11.84;78.23;98756.78;5070560;28;20044;-72
2022/04/23 04:27:00;;;;;;;4.50;1.00;;;;;;;11.89;78.18;98773.38;5083862;28;20516;-72
2022/04/23 04:29:28;;;;;;;3.87;1.07;;;;;;;11.80;78.21;98778.16;5070041;28;20084;-71
2022/04/23 04:31:55;;;;;;;6.67;1.20;;;;;;;11.78;78.57;98786.84;5071192;28;20049;-72
2022/04/23 04:34:25;;;;;;;8.17;1.33;;;;;;;11.77;78.32;98790.81;5069011;28;20119;-72
2022/04/23 04:37:01;;;;;;;4.13;1.20;;;;;;;11.60;78.73;98772.09;5069620;28;20083;-71
2022/04/23 04:39:28;;;;;;;2.40;1.10;;;;;;;11.68;78.33;98786.38;5067964;28;20143;-71
2022/04/23 04:41:55;;;;;;;4.23;1.30;;;;;;;11.41;78.36;98754.84;5066488;28;20076;-70
2022/04/23 04:44:22;;;;;;;1.63;0.87;;;;;;;11.55;78.29;98786.22;5070985;28;20491;-70
2022/04/23 04:46:49;;;;;;;2.10;1.10;;;;;;;11.67;78.25;98798.72;5072665;28;20110;-70
2022/04/23 04:49:16;;;;;;;2.50;1.27;;;;;;;11.73;78.33;98806.63;5069486;28;20467;-70
2022/04/23 04:51:43;;;;;;;4.57;1.30;;;;;;;11.22;78.23;98726.44;5066617;28;20533;-72
2022/04/23 04:54:10;;;;;;;3.93;1.20;;;;;;;11.50;78.10;98789.19;5072015;28;20064;-71
2022/04/23 04:56:37;;;;;;;6.07;1.27;;;;;;;11.74;78.20;98835.41;5065501;28;20079;-72
2022/04/23 04:59:05;;;;;;;3.43;1.13;;;;;;;11.12;78.29;98742.34;5069411;28;20051;-71
2022/04/23 05:01:31;;;;;;;3.93;0.93;;;;;;;11.60;78.27;98821.59;5061208;28;20099;-72
2022/04/23 05:03:59;;;;;;;2.53;1.00;;;;;;;11.65;78.33;98832.59;5070211;28;20048;-71
2022/04/23 05:06:25;;;;;;;6.83;1.33;;;;;;;11.66;78.32;98827.81;5068243;28;20052;-71
2022/04/23 05:08:52;;;;;;;4.00;1.10;;;;;;;11.42;78.46;98801.22;5070040;28;20068;-71
2022/04/23 05:11:19;;;;;;;4.23;1.00;;;;;;;11.57;78.45;98825.88;5071051;28;20068;-72
2022/04/23 05:13:46;;;;;;;1.53;1.13;;;;;;;11.63;78.35;98832.94;5068178;28;20588;-73
2022/04/23 05:16:13;;;;;;;2.33;0.83;;;;;;;11.70;78.25;98835.25;5069771;28;20087;-72
2022/04/23 05:18:40;;;;;;;2.20;0.70;;;;;;;11.75;78.38;98839.84;5066925;28;20047;-73
2022/04/23 05:21:07;;;;;;;3.23;1.10;;;;;;;11.71;78.03;98830.47;5060266;28;20084;-71
2022/04/23 05:23:34;;;;;;;3.17;1.10;;;;;;;11.73;78.23;98833.75;5068975;28;20076;-72
2022/04/23 05:26:03;;;;;;;1.67;0.83;;;;;;;11.78;77.98;98841.97;5069228;28;20084;-71
2022/04/23 05:28:34;;;;;;;6.13;1.30;;;;;;;11.63;78.18;98824.56;5068927;28;20044;-71
2022/04/23 05:31:05;;;;;;;1.27;0.77;;;;;;;11.76;78.07;98838.66;5057891;28;20118;-70
2022/04/23 05:33:31;;;;;;;3.00;0.88;;;;;;;11.78;78.03;98853.16;5070505;28;20044;-70
2022/04/23 05:35:59;;;;;;;1.73;0.70;;;;;;;11.58;78.02;98827.50;5067965;28;20083;-70
2022/04/23 05:38:25;;;;;;;3.47;1.00;;;;;;;11.89;78.14;98885.25;5062911;28;20123;-70
2022/04/23 05:40:52;;;;;;;3.10;1.00;;;;;;;11.59;78.04;98851.53;5068010;28;20515;-70
2022/04/23 05:43:19;;;;;;;1.57;0.90;;;;;;;11.82;78.05;98885.72;5070642;28;20098;-69
2022/04/23 05:45:46;;;;;;;1.13;0.60;;;;;;;11.86;78.03;98888.72;5071842;28;20074;-69
2022/04/23 05:48:13;;;;;;;5.27;0.70;;;;;;;11.83;78.19;98892.16;5067511;28;20447;-69
2022/04/23 05:50:40;;;;;;;3.43;0.90;;;;;;;11.87;78.19;98895.16;5073804;28;20049;-69
2022/04/23 05:53:06;;;;;;;1.27;0.70;;;;;;;11.91;78.24;98912.91;5075364;28;20049;-69
2022/04/23 05:55:34;;;;;;;3.00;0.97;;;;;;;11.74;77.89;98903.34;5073106;28;20135;-69
2022/04/23 05:58:01;;;;;;;6.60;1.00;;;;;;;11.88;77.83;98919.97;5073301;28;20052;-69
2022/04/23 06:00:28;;;;;;;2.63;0.80;;;;;;;11.62;77.98;98878.84;5074293;28;20051;-70
2022/04/23 06:02:55;;;;;;;1.37;0.90;;;;;;;11.85;77.88;98921.44;5066884;28;20080;-71
2022/04/23 06:05:22;;;;;;;2.57;1.10;;;;;;;11.69;78.10;98914.69;5070953;28;20040;-70
2022/04/23 06:07:49;;;;;;;3.43;1.00;;;;;;;11.72;77.98;98925.19;5066766;28;20091;-70
2022/04/23 06:10:16;;;;;;;3.37;0.83;;;;;;;11.72;77.92;98935.56;5070781;28;20612;-69
2022/04/23 06:12:43;;;;;;;3.93;0.87;;;;;;;11.71;77.82;98939.53;5071705;28;20080;-70
2022/04/23 06:15:10;;;;;;;1.00;0.90;;;;;;;11.43;77.93;98911.03;5074463;28;20097;-68
2022/04/23 06:17:37;;;;;;;4.43;1.67;;;;;;;11.43;78.19;98942.59;5074165;28;20066;-71
2022/04/23 06:20:05;;;;;;;3.70;1.13;;;;;;;11.48;78.24;98944.41;5075473;28;20177;-69
2022/04/23 06:22:32;;;;;;;1.37;1.00;;;;;;;11.44;78.39;98944.25;5067947;28;20573;-72
2022/04/23 06:24:59;;;;;;;4.67;1.33;;;;;;;11.42;78.17;98962.47;5072085;28;20140;-73
2022/04/23 06:27:26;;;;;;;3.83;1.00;;;;;;;11.39;78.42;98941.63;5068073;28;20127;-69
2022/04/23 06:29:53;;;;;;;3.87;1.27;;;;;;;11.50;78.38;98959.72;5067205;28;20076;-68
2022/04/23 06:32:20;;;;;;;5.20;1.53;;;;;;;11.57;78.54;98960.06;5074930;28;20492;-70
2022/04/23 06:34:46;;;;;;;5.17;1.70;;;;;;;11.58;78.88;98972.88;5069011;28;20106;-70
2022/04/23 06:37:13;;;;;;;3.47;1.60;;;;;;;11.65;79.01;98972.41;5074578;28;20049;-70
2022/04/23 06:39:40;;;;;;;3.97;2.30;;;;;;;11.65;79.17;98927.66;5075164;28;20091;-69
2022/04/23 06:42:07;;;;;;;8.70;1.83;;;;;;;12.25;79.08;98984.81;5071139;28;20084;-70
2022/04/23 06:44:35;;;;;;;5.23;1.50;;;;;;;12.50;79.51;98995.16;5070623;28;20087;-70
2022/04/23 06:47:02;;;;;;;3.53;1.77;;;;;;;12.42;79.50;98940.03;5070415;28;20048;-71
2022/04/23 06:49:29;;;;;;;7.77;1.43;;;;;;;12.77;80.11;98959.53;5064805;28;20418;-70
2022/04/23 06:51:56;;;;;;;6.10;1.50;;;;;;;13.04;79.95;98956.31;5071070;28;20090;-71
2022/04/23 06:54:24;;;;;;;6.63;2.33;;;;;;;13.08;80.07;98910.78;5067981;28;20040;-71
2022/04/23 06:56:52;;;;;;;13.37;2.00;;;;;;;13.73;79.94;98987.97;5070639;28;20084;-71
2022/04/23 06:59:19;;;;;;;5.23;1.77;;;;;;;13.79;80.25;98969.78;5073324;28;20063;-70
2022/04/23 07:01:46;;;;;;;5.47;2.37;;;;;;;14.02;79.97;98991.88;5070943;28;20109;-70
2022/04/23 07:04:13;;;;;;;6.93;3.07;;;;;;;14.16;80.13;99007.31;5071489;28;20045;-70
2022/04/23 07:06:40;;;;;;;3.30;1.67;;;;;;;13.98;80.09;98950.50;5065109;28;20503;-70
2022/04/23 07:09:07;;;;;;;5.83;3.57;;;;;;;14.40;79.81;99012.25;5084257;28;20118;-71
2022/04/23 07:11:34;;;;;;;4.47;2.30;;;;;;;14.17;79.90;98964.03;5071564;28;20044;-70
2022/04/23 07:14:01;;;;;;;3.58;1.40;;;;;;;14.52;80.13;99002.25;5067292;28;20487;-70
2022/04/23 07:16:28;;;;;;;5.20;1.45;;;;;;;14.28;80.01;98925.13;5065612;28;20052;-70
2022/04/23 07:18:55;;;;;;;2.65;1.70;;;;;;;14.69;80.29;99005.72;5065853;28;20048;-70
2022/04/23 07:21:22;;;;;;;7.68;2.00;;;;;;;14.28;80.44;98944.78;5066174;28;20040;-70
2022/04/23 07:24:05;;;;;;;6.75;2.63;;;;;;;14.58;80.03;98984.84;5066772;28;20105;-70
2022/04/23 07:26:34;;;;;;;4.65;1.50;;;;;;;14.90;79.71;99025.31;5068776;28;20114;-70
2022/04/23 07:29:03;;;;;;;2.25;1.23;;;;;;;14.99;79.74;99030.88;5071127;28;20561;-70
2022/04/23 07:31:30;;;;;;;2.65;0.98;;;;;;;15.05;79.49;99020.22;5066535;28;20076;-70
2022/04/23 07:39:28;;;;;;;3.03;1.10;;;;;;;15.79;78.62;99036.03;5065876;28;20083;-70
2022/04/23 07:41:55;;;;;;;1.58;0.90;;;;;;;15.93;78.53;99049.75;5070596;28;20094;-71
2022/04/23 07:44:25;;;;;;;5.35;1.00;;;;;;;16.10;78.60;99037.41;5068003;28;20072;-72
2022/04/23 07:46:52;;;;;;;2.45;1.10;;;;;;;16.10;77.75;99051.47;5064125;28;20080;-71
2022/04/23 07:49:19;;;;;;;1.95;0.88;;;;;;;16.30;78.40;99064.59;5071070;28;20301;-71
2022/04/23 07:51:50;;;;;;;1.45;0.77;;;;;;;16.52;78.63;99079.34;5066390;28;20397;-71
2022/04/23 07:54:17;;;;;;;2.30;1.23;;;;;;;16.52;77.93;99082.16;5072171;28;20068;-70
2022/04/23 07:56:44;;;;;;;1.08;0.95;;;;;;;16.61;77.66;99074.38;5074266;28;20057;-70
2022/04/23 07:59:11;;;;;;;5.05;0.90;;;;;;;16.63;77.48;99083.31;5075802;28;20091;-70
2022/04/23 08:01:38;;;;;;;3.45;0.77;;;;;;;16.38;77.41;99045.13;5069631;28;20052;-70
2022/04/23 08:04:06;;;;;;;2.03;0.63;;;;;;;16.71;77.14;99096.41;5066553;28;20048;-71
2022/04/23 08:06:34;;;;;;;1.80;0.90;;;;;;;16.10;77.62;99021.34;5062889;28;20056;-70
2022/04/23 08:09:01;;;;;;;1.50;1.00;;;;;;;16.81;77.60;99093.13;5070861;28;20052;-69
2022/04/23 08:11:28;;;;;;;3.50;1.42;;;;;;;17.22;77.46;99116.47;5059864;28;20087;-69
2022/04/23 08:13:56;;;;;;;2.63;1.20;;;;;;;17.27;76.90;99106.94;5060595;28;20037;-70
2022/04/23 08:16:26;;;;;;;1.30;0.90;;;;;;;17.06;76.63;99090.22;5062255;28;20058;-69
2022/04/23 08:18:54;;;;;;;3.10;1.40;;;;;;;16.75;77.44;99072.03;5066414;28;20056;-69
2022/04/23 08:21:22;;;;;;;2.40;1.13;;;;;;;17.31;76.89;99090.09;5065357;28;20076;-69
2022/04/23 08:23:49;;;;;;;4.55;1.10;;;;;;;17.27;76.66;99073.91;5063415;28;20041;-70
2022/04/23 08:26:16;;;;;;;2.72;1.10;;;;;;;17.66;76.72;99135.41;5063673;28;20044;-70
2022/04/23 08:31:29;;;;;;;2.00;1.10;;;;;;;17.68;75.75;99108.44;5065204;28;20557;-71
2022/04/23 08:33:59;;;;;;;2.38;1.27;;;;;;;17.90;75.99;99117.50;5059004;28;20446;-73
2022/04/23 08:36:30;;;;;;;3.13;1.23;;;;;;;18.03;75.61;99104.09;5063154;28;20076;-71
2022/04/23 08:38:59;;;;;;;2.75;1.20;;;;;;;18.43;75.20;99140.59;5053370;28;20102;-70
2022/04/23 08:41:28;;;;;;;1.38;0.85;;;;;;;18.54;75.04;99127.53;5068381;28;20491;-70
2022/04/23 08:44:05;;;;;;;3.25;1.42;;;;;;;18.91;75.66;99146.97;5061892;28;20083;-71
2022/04/23 08:46:34;;;;;;;2.97;0.90;;;;;;;19.11;74.22;99131.63;5062122;28;20130;-72
2022/04/23 08:49:14;;;;;;;5.13;1.00;;;;;;;19.18;74.24;99117.63;5063114;28;20044;-71
2022/04/23 08:51:53;;;;;;;7.32;1.38;;;;;;;19.36;73.58;99105.84;5060084;28;20053;-71
2022/04/23 08:54:23;;;;;;;3.75;1.05;;;;;;;19.84;73.26;99134.69;5059845;28;20069;-71
2022/04/23 08:56:50;;;;;;;3.03;0.98;;;;;;;20.26;72.57;99179.94;5063316;28;20662;-71
2022/04/23 08:59:17;;;;;;;4.43;1.38;;;;;;;20.37;71.63;99163.09;5069753;28;20078;-70
2022/04/23 09:01:49;;;;;;;5.63;1.38;;;;;;;20.31;71.59;99165.44;5067996;28;20056;-70
2022/04/23 09:04:16;;;;;;;3.08;1.15;;;;;;;20.61;71.55;99175.25;5072227;28;20044;-70
2022/04/23 09:06:45;;;;;;;4.95;1.10;;;;;;;20.59;71.65;99172.81;5067071;28;20049;-70
2022/04/23 09:09:17;;;;;;;5.75;1.42;;;;;;;20.55;72.12;99160.59;5069165;28;20053;-70
2022/04/23 09:11:56;;;;;;;3.78;1.50;;;;;;;20.74;71.14;99151.13;5070590;28;20583;-70
2022/04/23 09:14:30;;;;;;;2.75;1.60;;;;;;;20.92;72.45;99146.56;5071748;28;20067;-70
2022/04/23 09:23:39;;;;;;;1.58;0.70;;;;;;;21.47;71.33;99175.25;5061721;28;20540;-70
2022/04/23 09:25:51;;;;;;;0.30;0.30;;;;;;;20.18;72.87;99188.72;5052170;28;20556;-70
2022/04/23 09:28:21;;;;;;;2.45;0.90;;;;;;;19.70;73.84;99180.56;5059202;28;20084;-71
2022/04/23 09:30:54;;;;;;;0.75;0.75;;;;;;;19.96;73.14;99176.97;5064495;28;20095;-70
2022/04/23 09:33:41;;;;;;;1.67;0.80;;;;;;;20.43;72.19;99192.78;5072265;28;20106;-70
2022/04/23 09:36:08;;;;;;;1.58;0.55;;;;;;;20.83;70.33;99208.44;5072782;28;20080;-70
2022/04/23 09:38:35;;;;;;;1.23;0.77;;;;;;;20.68;70.59;99159.16;5095226;28;20051;-70
2022/04/23 09:41:21;;;;;;;1.52;0.93;;;;;;;21.10;70.41;99186.53;5096436;28;20498;-70
2022/04/23 09:44:05;;;;;;;5.40;1.20;;;;;;;20.76;72.67;99208.31;5077393;28;20136;-70
2022/04/23 09:46:43;;;;;;;2.75;1.05;;;;;;;20.43;72.73;99187.09;5068780;28;20106;-70
2022/04/23 09:49:29;;;;;;;1.98;0.70;;;;;;;20.53;72.76;99246.03;5076398;28;20049;-70
2022/04/23 09:52:04;;;;;;;2.50;0.70;;;;;;;20.19;72.87;99224.34;5063644;28;20057;-71
2022/04/23 09:54:32;;;;;;;2.05;0.70;;;;;;;19.80;73.53;99247.09;5055622;28;20109;-71
2022/04/23 09:57:00;;;;;;;2.75;0.60;;;;;;;19.48;73.59;99241.56;5079251;28;20052;-70
2022/04/23 09:59:27;;;;;;;1.45;0.68;;;;;;;19.12;73.83;99211.69;5075260;28;20462;-70
2022/04/23 10:01:55;;;;;;;1.42;0.88;;;;;;;18.90;74.07;99222.50;5076199;28;20098;-70
2022/04/23 10:04:27;;;;;;;1.80;1.10;;;;;;;18.85;73.81;99177.53;5062650;28;20056;-70
2022/04/23 10:06:56;;;;;;;1.40;0.95;;;;;;;19.87;72.71;99281.25;5055632;28;20068;-70
2022/04/23 10:09:27;;;;;;;5.75;0.77;;;;;;;20.09;72.38;99266.28;5070093;28;20106;-70
2022/04/23 10:12:07;;;;;;;2.35;0.98;;;;;;;20.13;73.17;99295.50;5080171;28;20075;-70
2022/04/23 10:14:47;;;;;;;3.78;1.00;;;;;;;20.46;72.69;99284.78;5073647;28;20098;-71
2022/04/23 10:17:20;;;;;;;3.15;0.80;;;;;;;20.46;72.20;99256.41;5062674;28;20461;-70
2022/04/23 10:19:48;;;;;;;1.73;1.10;;;;;;;20.59;70.31;99227.50;5075468;28;20080;-71
2022/04/23 10:22:39;;;;;;;1.40;1.00;;;;;;;21.09;72.11;99294.75;5074481;28;20044;-71
2022/04/23 10:25:40;;;;;;;1.40;0.85;;;;;;;21.25;71.76;99287.69;5069605;28;20037;-71
2022/04/23 10:28:08;;;;;;;4.25;1.45;;;;;;;21.34;71.22;99293.16;5058209;28;20052;-72
2022/04/23 10:30:35;;;;;;;1.33;0.82;;;;;;;21.72;70.77;99309.09;5072933;28;20084;-71
2022/04/23 10:33:31;;;;;;;3.13;1.20;;;;;;;22.18;71.66;99306.00;5073649;28;20082;-71
2022/04/23 10:36:08;;;;;;;1.08;0.75;;;;;;;22.49;70.27;99309.56;5074022;28;20084;-71
2022/04/23 10:38:42;;;;;;;1.88;1.00;;;;;;;22.92;70.02;99313.66;5075147;28;20053;-70
2022/04/23 10:41:11;;;;;;;3.13;1.00;;;;;;;23.00;68.67;99256.78;5070812;28;20553;-70
2022/04/23 10:44:00;;;;;;;3.78;0.60;;;;;;;23.10;70.87;99328.03;5054667;28;20062;-70
2022/04/23 10:46:36;;;;;;;5.40;0.82;;;;;;;22.41;71.95;99330.63;5059639;28;20507;-70
2022/04/23 10:49:22;;;;;;;6.97;1.83;;;;;;;21.73;72.14;99344.00;5074984;28;20048;-71
2022/04/23 10:51:52;;;;;;;5.70;1.10;;;;;;;21.09;72.01;99362.88;5074880;28;20134;-72
2022/04/23 10:54:21;;;;;;;2.10;0.98;;;;;;;20.34;73.55;99350.97;5074857;28;20090;-71
2022/04/23 10:56:53;;;;;;;3.25;0.90;;;;;;;19.72;73.80;99335.94;5073098;28;20052;-71
2022/04/23 10:59:53;;;;;;;4.63;1.25;;;;;;;19.43;76.16;99352.28;5071430;28;20487;-71
2022/04/23 11:02:23;;;;;;;1.77;1.00;;;;;;;19.27;75.20;99357.16;5050258;28;20056;-71
2022/04/23 11:13:57;;;;;;;2.50;0.90;;;;;;;19.84;76.22;99322.47;5071204;28;20083;-71
2022/04/23 11:16:28;;;;;;;3.22;0.98;;;;;;;20.46;75.98;99370.66;5079600;28;20048;-70
2022/04/23 11:18:58;;;;;;;1.88;0.65;;;;;;;20.82;74.66;99365.69;5063863;28;20128;-70
2022/04/23 11:21:28;;;;;;;4.43;0.90;;;;;;;20.82;73.01;99360.00;5054610;28;20071;-71
2022/04/23 11:23:56;;;;;;;3.00;0.90;;;;;;;20.76;73.24;99362.34;5054537;28;20076;-71
2022/04/23 11:26:45;;;;;;;2.00;1.13;;;;;;;20.44;74.52;99372.22;5057307;28;20045;-71
2022/04/23 11:29:14;;;;;;;1.67;1.02;;;;;;;20.62;73.02;99372.63;5054313;28;20049;-71
2022/04/23 11:31:49;;;;;;;3.00;1.45;;;;;;;20.56;71.46;99357.91;5063671;28;20084;-71
2022/04/23 11:34:16;;;;;;;3.33;1.15;;;;;;;20.77;71.13;99346.13;5071268;28;20095;-71
2022/04/23 11:36:43;;;;;;;1.10;1.00;;;;;;;21.45;68.65;99381.34;5071058;28;20095;-71
2022/04/23 11:39:11;;;;;;;0.73;0.73;;;;;;;21.35;69.62;99297.63;5074291;28;20122;-71
2022/04/23 11:41:38;;;;;;;0.68;0.40;;;;;;;22.11;68.65;99401.75;5072618;28;20435;-71
2022/04/23 11:44:17;;;;;;;0.38;0.30;;;;;;;22.16;69.63;99387.22;5070509;28;20052;-71
2022/04/23 11:46:46;;;;;;;0.98;0.95;;;;;;;22.05;70.29;99375.69;5056722;28;20244;-71
2022/04/23 11:49:30;;;;;;;1.10;1.00;;;;;;;22.34;71.45;99371.19;5072295;28;20048;-71
2022/04/23 11:52:00;;;;;;;2.38;1.65;;;;;;;23.07;69.33;99387.78;5073793;28;20040;-70
2022/04/23 11:54:37;;;;;;;3.80;1.33;;;;;;;23.55;68.53;99382.88;5073550;28;20105;-70
2022/04/23 11:57:07;;;;;;;1.42;1.20;;;;;;;24.07;68.04;99385.66;5071560;28;20529;-71
2022/04/23 11:59:43;;;;;;;;;;;;;;;24.20;71.28;99391.81;5073085;28;20514;-71
2022/04/23 12:02:21;;;;;;;3.95;1.08;;;;;;;24.80;68.38;99377.75;5072349;28;19961;-71
2022/04/23 12:04:50;;;;;;;1.20;1.00;;;;;;;25.57;64.87;99400.22;5068555;28;20048;-71
2022/04/23 12:07:19;;;;;;;0.70;0.70;;;;;;;25.76;63.83;99410.44;5058242;28;20052;-71
2022/04/23 12:09:51;;;;;;;2.05;0.93;;;;;;;25.95;64.02;99403.47;5071740;28;20118;-71